»·PEaware :: N629MS E16-O09

N629MS :: E16-O09

FLIGHT INFORMATION

Flight Status: Arrived
Operator: Privately registered:
United States
More flights under this callsign
Pilot: Mike T. (22542)
Aircraft: BEECH AIRCRAFT BARON
(BE58)
More flights by this aircraft type
Origin: E16 South Co Of Santa Clara Co
United States
Destination: O09 Round Valley
United States
More flights between these airports :: More routes between these airports
Route:
File this flight plan on PilotEdge
Remarks:
Altitude:
(Current/Filed)
4,500ft
Speed:
(Current/Filed)
180kts
Departed: 30-Dec-18 04:40 AM
Arrived: 30-Dec-18 05:42 AM
Distance/Time
Traveled:
280nm/1:01
Distance/Time
To Go:
Arrived

Flight Plot

Page will automatically refresh every two minutes.


Map Options




Map Legend


Flown Route
Filed Route
Departure Airport
Arrival Airport
Navaid (VOR, NDB)
Fix

Horizontal Profiles

Position Reports

Time Latitude Longitude Heading Altitude Ground
Speed
30-Dec-18 04:25 37.077577 -121.598451 156 283ft 0kts
30-Dec-18 04:26 37.077577 -121.598451 156 283ft 0kts
30-Dec-18 04:27 37.077576 -121.598451 156 283ft 0kts
30-Dec-18 04:28 37.077575 -121.598450 156 283ft 0kts
30-Dec-18 04:29 37.077574 -121.598450 156 283ft 0kts
30-Dec-18 04:30 37.077574 -121.598450 156 283ft 0kts
30-Dec-18 04:31 37.077573 -121.598449 156 283ft 0kts
30-Dec-18 04:32 37.077573 -121.598449 156 283ft 0kts
30-Dec-18 04:33 37.077572 -121.598449 156 283ft 0kts
30-Dec-18 04:34 37.077572 -121.598448 156 283ft 0kts
30-Dec-18 04:35 37.077984 -121.598354 63 283ft 5kts
30-Dec-18 04:36 37.077513 -121.596768 158 283ft 7kts
30-Dec-18 04:37 37.077602 -121.595206 65 283ft 0kts
30-Dec-18 04:38 37.077787 -121.594752 18 283ft 3kts
30-Dec-18 04:39 37.082893 -121.597861 333 349ft 96kts
30-Dec-18 04:40 37.119427 -121.618079 338 1404ft 170kts
30-Dec-18 04:41 37.164151 -121.641998 336 2406ft 175kts
30-Dec-18 04:42 37.208971 -121.665474 336 3410ft 170kts
30-Dec-18 04:43 37.251212 -121.687214 337 4341ft 162kts
30-Dec-18 04:44 37.294887 -121.711659 337 4466ft 178kts
30-Dec-18 04:45 37.340413 -121.737182 337 4466ft 180kts
30-Dec-18 04:46 37.386290 -121.762911 337 4467ft 180kts
30-Dec-18 04:47 37.431667 -121.790167 334 4468ft 180kts
30-Dec-18 04:48 37.476370 -121.819131 334 4471ft 180kts
30-Dec-18 04:49 37.521161 -121.848190 334 4472ft 180kts
30-Dec-18 04:50 37.565894 -121.877230 334 4474ft 180kts
30-Dec-18 04:51 37.610483 -121.906198 334 4478ft 180kts
30-Dec-18 04:52 37.655113 -121.935235 334 4497ft 180kts
30-Dec-18 04:53 37.702260 -121.964817 334 4474ft 201kts
30-Dec-18 04:54 37.753612 -121.995413 334 4468ft 205kts
30-Dec-18 04:55 37.805418 -122.025171 334 4470ft 198kts
30-Dec-18 04:56 37.854529 -122.051222 334 4475ft 186kts
30-Dec-18 04:57 37.901529 -122.077684 334 4469ft 183kts
30-Dec-18 04:58 37.947392 -122.105332 334 4470ft 181kts
30-Dec-18 04:59 37.994037 -122.135852 334 4494ft 191kts
30-Dec-18 05:00 38.040514 -122.169466 334 4463ft 196kts
30-Dec-18 05:01 38.086834 -122.203091 334 4496ft 191kts
30-Dec-18 05:02 38.133496 -122.236981 334 4494ft 194kts
30-Dec-18 05:03 38.182290 -122.265779 336 4479ft 192kts
30-Dec-18 05:04 38.229868 -122.290832 332 4469ft 179kts
30-Dec-18 05:05 38.275698 -122.313410 336 4471ft 176kts
30-Dec-18 05:06 38.321837 -122.334812 338 4472ft 177kts
30-Dec-18 05:07 38.366878 -122.357712 336 4470ft 173kts
30-Dec-18 05:08 38.411556 -122.380454 336 4476ft 172kts
30-Dec-18 05:09 38.453928 -122.403755 336 5062ft 163kts
30-Dec-18 05:10 38.494849 -122.430112 336 5656ft 165kts
30-Dec-18 05:11 38.535296 -122.458554 333 6257ft 165kts
30-Dec-18 05:12 38.575950 -122.489003 333 6471ft 176kts
30-Dec-18 05:14 38.618886 -122.520374 333 6442ft 176kts
30-Dec-18 05:15 38.661830 -122.550527 333 6442ft 175kts
30-Dec-18 05:16 38.704418 -122.580441 333 6441ft 175kts
30-Dec-18 05:17 38.747201 -122.610511 333 6441ft 175kts
30-Dec-18 05:18 38.789860 -122.640484 333 6441ft 175kts
30-Dec-18 05:19 38.832840 -122.669506 334 6442ft 174kts
30-Dec-18 05:20 38.875902 -122.698491 334 6446ft 174kts
30-Dec-18 05:21 38.919164 -122.727134 335 6446ft 174kts
30-Dec-18 05:22 38.962657 -122.755130 335 6446ft 174kts
30-Dec-18 05:23 39.006032 -122.783061 335 6445ft 174kts
30-Dec-18 05:24 39.050091 -122.811994 336 6443ft 186kts
30-Dec-18 05:25 39.098208 -122.844302 336 6441ft 198kts
30-Dec-18 05:26 39.146977 -122.876272 338 6440ft 195kts
30-Dec-18 05:27 39.195661 -122.905746 340 6441ft 191kts
30-Dec-18 05:28 39.243527 -122.934012 339 6441ft 185kts
30-Dec-18 05:29 39.290336 -122.959787 343 6440ft 181kts
30-Dec-18 05:30 39.337336 -122.983322 343 6440ft 181kts
30-Dec-18 05:31 39.384718 -123.006466 340 6441ft 187kts
30-Dec-18 05:32 39.435783 -123.017475 353 6441ft 183kts
30-Dec-18 05:33 39.485948 -123.022091 353 6441ft 179kts
30-Dec-18 05:34 39.535603 -123.027185 352 6491ft 179kts
30-Dec-18 05:35 39.578265 -123.061372 322 6138ft 185kts
30-Dec-18 05:36 39.619571 -123.103384 322 5232ft 191kts
30-Dec-18 05:36 39.654341 -123.138756 322 4570ft 187kts
30-Dec-18 05:38 39.700242 -123.185267 322 3845ft 176kts
30-Dec-18 05:38 39.732663 -123.209901 333 3243ft 134kts
30-Dec-18 05:40 39.770222 -123.234812 333 2217ft 120kts
30-Dec-18 05:40 39.786706 -123.257688 297 1488ft 83kts
30-Dec-18 05:41 39.789774 -123.265041 35 1436ft 0kts
30-Dec-18 05:42 39.789789 -123.262915 357 1436ft 0kts
30-Dec-18 05:43 39.789789 -123.262915 357 1436ft 0kts
30-Dec-18 05:44 39.789790 -123.262915 357 1436ft 0kts
30-Dec-18 05:45 39.789790 -123.262915 357 1436ft 0kts
30-Dec-18 05:46 39.789790 -123.262915 357 1436ft 0kts
30-Dec-18 05:47 39.789790 -123.262915 357 1436ft 0kts
30-Dec-18 05:48 39.789790 -123.262915 357 1436ft 0kts
30-Dec-18 05:49 39.792368 -123.272037 117 1436ft 0kts
30-Dec-18 05:50 39.793514 -123.248754 36 1917ft 140kts
30-Dec-18 05:51 40.193935 -122.918018 30 8985ft 174kts
30-Dec-18 05:52 40.856069 -122.323842 30 8989ft 183kts
30-Dec-18 05:53 41.235528 -121.976577 30 8988ft 179kts
30-Dec-18 05:54 41.545910 -121.689234 31 8019ft 166kts
30-Dec-18 05:55 41.660392 -121.582321 31 7978ft 165kts
30-Dec-18 05:56 41.744324 -121.503807 34 6633ft 190kts

Navigation Log

Ident Type
Flight plan parsing failed, navigation log unavailable